sensor_id;sensor_type;location;lat;lon;timestamp;temperature;humidity
65826;DHT22;52586;-43.152;172.732;2023-04-15T00:01:18;19.30;58.20
65826;DHT22;52586;-43.152;172.732;2023-04-15T00:03:50;19.40;58.30
65826;DHT22;52586;-43.152;172.732;2023-04-15T00:06:23;19.40;58.30
65826;DHT22;52586;-43.152;172.732;2023-04-15T00:08:54;19.40;58.30
65826;DHT22;52586;-43.152;172.732;2023-04-15T00:11:25;19.40;58.30
65826;DHT22;52586;-43.152;172.732;2023-04-15T00:13:55;19.40;58.30
65826;DHT22;52586;-43.152;172.732;2023-04-15T00:16:26;19.40;58.30
65826;DHT22;52586;-43.152;172.732;2023-04-15T00:18:57;19.40;58.30
65826;DHT22;52586;-43.152;172.732;2023-04-15T00:21:29;19.40;59.00
65826;DHT22;52586;-43.152;172.732;2023-04-15T00:24:00;19.50;58.50
65826;DHT22;52586;-43.152;172.732;2023-04-15T00:26:30;19.40;58.40
65826;DHT22;52586;-43.152;172.732;2023-04-15T00:29:02;19.50;58.70
65826;DHT22;52586;-43.152;172.732;2023-04-15T00:31:33;19.50;58.70
65826;DHT22;52586;-43.152;172.732;2023-04-15T00:34:03;19.50;58.80
65826;DHT22;52586;-43.152;172.732;2023-04-15T00:36:36;19.60;58.70
65826;DHT22;52586;-43.152;172.732;2023-04-15T00:39:06;19.60;58.70
65826;DHT22;52586;-43.152;172.732;2023-04-15T00:41:37;19.60;58.70
65826;DHT22;52586;-43.152;172.732;2023-04-15T00:44:08;19.60;58.70
65826;DHT22;52586;-43.152;172.732;2023-04-15T00:46:39;19.60;58.60
65826;DHT22;52586;-43.152;172.732;2023-04-15T00:49:10;19.60;58.60
65826;DHT22;52586;-43.152;172.732;2023-04-15T00:51:43;19.70;58.60
65826;DHT22;52586;-43.152;172.732;2023-04-15T00:54:14;19.70;58.60
65826;DHT22;52586;-43.152;172.732;2023-04-15T00:56:45;19.70;58.60
65826;DHT22;52586;-43.152;172.732;2023-04-15T00:59:15;19.70;58.60
65826;DHT22;52586;-43.152;172.732;2023-04-15T01:01:47;19.70;58.60
65826;DHT22;52586;-43.152;172.732;2023-04-15T01:04:18;19.70;58.60
65826;DHT22;52586;-43.152;172.732;2023-04-15T01:06:51;19.70;58.60
65826;DHT22;52586;-43.152;172.732;2023-04-15T01:09:21;19.70;58.60
65826;DHT22;52586;-43.152;172.732;2023-04-15T01:11:52;19.80;58.70
65826;DHT22;52586;-43.152;172.732;2023-04-15T01:14:24;19.80;58.70
65826;DHT22;52586;-43.152;172.732;2023-04-15T01:16:54;19.80;58.70
65826;DHT22;52586;-43.152;172.732;2023-04-15T01:19:25;19.80;58.70
65826;DHT22;52586;-43.152;172.732;2023-04-15T01:21:58;19.80;58.60
65826;DHT22;52586;-43.152;172.732;2023-04-15T01:24:31;19.80;58.70
65826;DHT22;52586;-43.152;172.732;2023-04-15T01:27:04;19.80;58.70
65826;DHT22;52586;-43.152;172.732;2023-04-15T01:29:40;19.80;58.60
65826;DHT22;52586;-43.152;172.732;2023-04-15T01:32:10;19.80;58.60
65826;DHT22;52586;-43.152;172.732;2023-04-15T01:34:41;19.90;58.60
65826;DHT22;52586;-43.152;172.732;2023-04-15T01:37:12;19.90;58.60
65826;DHT22;52586;-43.152;172.732;2023-04-15T01:39:43;19.90;58.70
65826;DHT22;52586;-43.152;172.732;2023-04-15T01:42:15;19.90;58.70
65826;DHT22;52586;-43.152;172.732;2023-04-15T01:44:46;19.90;58.80
65826;DHT22;52586;-43.152;172.732;2023-04-15T01:47:16;19.90;58.80
65826;DHT22;52586;-43.152;172.732;2023-04-15T01:49:47;19.90;58.80
65826;DHT22;52586;-43.152;172.732;2023-04-15T01:52:17;20.00;58.90
65826;DHT22;52586;-43.152;172.732;2023-04-15T01:54:48;19.90;58.80
65826;DHT22;52586;-43.152;172.732;2023-04-15T01:57:21;20.00;58.90
65826;DHT22;52586;-43.152;172.732;2023-04-15T01:59:51;20.00;58.80
65826;DHT22;52586;-43.152;172.732;2023-04-15T02:02:22;20.00;58.80
65826;DHT22;52586;-43.152;172.732;2023-04-15T02:04:53;20.00;58.80
65826;DHT22;52586;-43.152;172.732;2023-04-15T02:07:24;20.00;58.80
65826;DHT22;52586;-43.152;172.732;2023-04-15T02:09:55;20.00;58.80
65826;DHT22;52586;-43.152;172.732;2023-04-15T02:12:28;20.00;58.80
65826;DHT22;52586;-43.152;172.732;2023-04-15T02:14:58;20.10;58.80
65826;DHT22;52586;-43.152;172.732;2023-04-15T02:17:29;20.10;58.90
65826;DHT22;52586;-43.152;172.732;2023-04-15T02:20:00;20.10;58.80
65826;DHT22;52586;-43.152;172.732;2023-04-15T02:22:31;20.10;58.80
65826;DHT22;52586;-43.152;172.732;2023-04-15T02:25:02;20.10;58.90
65826;DHT22;52586;-43.152;172.732;2023-04-15T02:27:35;20.10;58.90
65826;DHT22;52586;-43.152;172.732;2023-04-15T02:30:07;20.10;58.90
65826;DHT22;52586;-43.152;172.732;2023-04-15T02:32:38;20.10;58.90
65826;DHT22;52586;-43.152;172.732;2023-04-15T02:35:10;20.20;58.90
65826;DHT22;52586;-43.152;172.732;2023-04-15T02:37:41;20.20;58.90
65826;DHT22;52586;-43.152;172.732;2023-04-15T02:40:12;20.20;59.00
65826;DHT22;52586;-43.152;172.732;2023-04-15T02:42:45;20.20;58.90
65826;DHT22;52586;-43.152;172.732;2023-04-15T02:45:16;20.20;59.00
65826;DHT22;52586;-43.152;172.732;2023-04-15T02:47:50;20.20;59.00
65826;DHT22;52586;-43.152;172.732;2023-04-15T02:50:21;20.30;58.90
65826;DHT22;52586;-43.152;172.732;2023-04-15T02:52:52;20.30;59.00
65826;DHT22;52586;-43.152;172.732;2023-04-15T02:55:23;20.30;59.20
65826;DHT22;52586;-43.152;172.732;2023-04-15T02:57:55;20.30;58.90
65826;DHT22;52586;-43.152;172.732;2023-04-15T03:00:27;20.30;58.90
65826;DHT22;52586;-43.152;172.732;2023-04-15T03:03:00;20.30;58.90
65826;DHT22;52586;-43.152;172.732;2023-04-15T03:05:31;20.30;58.90
65826;DHT22;52586;-43.152;172.732;2023-04-15T03:08:02;20.30;58.90
65826;DHT22;52586;-43.152;172.732;2023-04-15T03:10:33;20.40;59.00
65826;DHT22;52586;-43.152;172.732;2023-04-15T03:13:05;20.40;59.00
65826;DHT22;52586;-43.152;172.732;2023-04-15T03:15:36;20.40;59.00
65826;DHT22;52586;-43.152;172.732;2023-04-15T03:18:07;20.40;59.00
65826;DHT22;52586;-43.152;172.732;2023-04-15T03:20:37;20.40;58.90
65826;DHT22;52586;-43.152;172.732;2023-04-15T03:23:08;20.50;58.90
65826;DHT22;52586;-43.152;172.732;2023-04-15T03:25:38;20.40;58.90
65826;DHT22;52586;-43.152;172.732;2023-04-15T03:28:11;20.40;58.80
65826;DHT22;52586;-43.152;172.732;2023-04-15T03:30:42;20.40;58.80
65826;DHT22;52586;-43.152;172.732;2023-04-15T03:33:12;20.50;58.90
65826;DHT22;52586;-43.152;172.732;2023-04-15T03:35:43;20.50;58.80
65826;DHT22;52586;-43.152;172.732;2023-04-15T03:38:14;20.50;58.80
65826;DHT22;52586;-43.152;172.732;2023-04-15T03:40:45;20.50;58.80
65826;DHT22;52586;-43.152;172.732;2023-04-15T03:43:18;20.50;58.80
65826;DHT22;52586;-43.152;172.732;2023-04-15T03:45:48;20.50;58.70
65826;DHT22;52586;-43.152;172.732;2023-04-15T03:48:19;20.50;58.80
65826;DHT22;52586;-43.152;172.732;2023-04-15T03:50:49;20.50;58.80
65826;DHT22;52586;-43.152;172.732;2023-04-15T03:53:21;20.60;58.80
65826;DHT22;52586;-43.152;172.732;2023-04-15T03:55:52;20.60;58.80
65826;DHT22;52586;-43.152;172.732;2023-04-15T03:58:24;20.60;58.70
65826;DHT22;52586;-43.152;172.732;2023-04-15T04:00:55;20.60;58.70
65826;DHT22;52586;-43.152;172.732;2023-04-15T04:03:26;20.60;58.70
65826;DHT22;52586;-43.152;172.732;2023-04-15T04:05:56;20.60;58.60
65826;DHT22;52586;-43.152;172.732;2023-04-15T04:08:27;20.60;58.70
65826;DHT22;52586;-43.152;172.732;2023-04-15T04:10:57;20.60;58.60
65826;DHT22;52586;-43.152;172.732;2023-04-15T04:13:30;20.70;58.60
65826;DHT22;52586;-43.152;172.732;2023-04-15T04:16:01;20.70;58.60
65826;DHT22;52586;-43.152;172.732;2023-04-15T04:18:32;20.70;58.60
65826;DHT22;52586;-43.152;172.732;2023-04-15T04:21:02;20.70;58.60
65826;DHT22;52586;-43.152;172.732;2023-04-15T04:23:34;20.70;58.60
65826;DHT22;52586;-43.152;172.732;2023-04-15T04:26:04;20.70;58.50
65826;DHT22;52586;-43.152;172.732;2023-04-15T04:28:37;20.80;58.60
65826;DHT22;52586;-43.152;172.732;2023-04-15T04:31:08;20.80;58.50
65826;DHT22;52586;-43.152;172.732;2023-04-15T04:33:39;20.90;58.50
65826;DHT22;52586;-43.152;172.732;2023-04-15T04:36:09;20.90;58.50
65826;DHT22;52586;-43.152;172.732;2023-04-15T04:38:40;20.90;58.50
65826;DHT22;52586;-43.152;172.732;2023-04-15T04:41:11;20.80;58.40
65826;DHT22;52586;-43.152;172.732;2023-04-15T04:43:43;20.90;58.30
65826;DHT22;52586;-43.152;172.732;2023-04-15T04:46:14;20.90;58.20
65826;DHT22;52586;-43.152;172.732;2023-04-15T04:48:44;20.90;58.20
65826;DHT22;52586;-43.152;172.732;2023-04-15T04:51:15;20.90;58.20
65826;DHT22;52586;-43.152;172.732;2023-04-15T04:53:46;20.90;58.10
65826;DHT22;52586;-43.152;172.732;2023-04-15T04:56:16;20.90;58.10
65826;DHT22;52586;-43.152;172.732;2023-04-15T04:58:49;20.90;58.10
65826;DHT22;52586;-43.152;172.732;2023-04-15T05:01:19;20.90;58.10
65826;DHT22;52586;-43.152;172.732;2023-04-15T05:03:50;20.90;58.10
65826;DHT22;52586;-43.152;172.732;2023-04-15T05:06:21;20.90;58.10
65826;DHT22;52586;-43.152;172.732;2023-04-15T05:08:51;20.90;58.10
65826;DHT22;52586;-43.152;172.732;2023-04-15T05:11:23;20.90;58.10
65826;DHT22;52586;-43.152;172.732;2023-04-15T05:13:55;20.90;58.10
65826;DHT22;52586;-43.152;172.732;2023-04-15T05:16:28;20.90;58.10
65826;DHT22;52586;-43.152;172.732;2023-04-15T05:18:58;21.00;58.10
65826;DHT22;52586;-43.152;172.732;2023-04-15T05:21:29;20.90;58.00
65826;DHT22;52586;-43.152;172.732;2023-04-15T05:24:00;20.90;58.00
65826;DHT22;52586;-43.152;172.732;2023-04-15T05:26:31;20.90;57.90
65826;DHT22;52586;-43.152;172.732;2023-04-15T05:29:05;21.00;57.90
65826;DHT22;52586;-43.152;172.732;2023-04-15T05:31:35;21.00;57.90
65826;DHT22;52586;-43.152;172.732;2023-04-15T05:34:06;20.90;57.80
65826;DHT22;52586;-43.152;172.732;2023-04-15T05:36:37;20.90;57.70
65826;DHT22;52586;-43.152;172.732;2023-04-15T05:39:07;20.90;57.70
65826;DHT22;52586;-43.152;172.732;2023-04-15T05:41:38;20.90;57.70
65826;DHT22;52586;-43.152;172.732;2023-04-15T05:44:11;20.90;57.70
65826;DHT22;52586;-43.152;172.732;2023-04-15T05:46:41;20.90;57.70
65826;DHT22;52586;-43.152;172.732;2023-04-15T05:49:12;20.90;57.80
65826;DHT22;52586;-43.152;172.732;2023-04-15T05:51:43;20.90;57.70
65826;DHT22;52586;-43.152;172.732;2023-04-15T05:54:13;20.90;57.70
65826;DHT22;52586;-43.152;172.732;2023-04-15T05:56:45;20.90;57.70
65826;DHT22;52586;-43.152;172.732;2023-04-15T05:59:18;20.90;57.60
65826;DHT22;52586;-43.152;172.732;2023-04-15T06:01:48;20.80;57.60
65826;DHT22;52586;-43.152;172.732;2023-04-15T06:04:19;20.80;57.50
65826;DHT22;52586;-43.152;172.732;2023-04-15T06:06:50;20.80;57.50
65826;DHT22;52586;-43.152;172.732;2023-04-15T06:09:21;20.80;57.60
65826;DHT22;52586;-43.152;172.732;2023-04-15T06:11:52;20.80;57.50
65826;DHT22;52586;-43.152;172.732;2023-04-15T06:14:25;20.80;57.60
65826;DHT22;52586;-43.152;172.732;2023-04-15T06:16:56;20.80;57.50
65826;DHT22;52586;-43.152;172.732;2023-04-15T06:19:26;20.80;57.50
65826;DHT22;52586;-43.152;172.732;2023-04-15T06:21:57;20.80;57.50
65826;DHT22;52586;-43.152;172.732;2023-04-15T06:24:28;20.70;57.50
65826;DHT22;52586;-43.152;172.732;2023-04-15T06:26:59;20.70;57.60
65826;DHT22;52586;-43.152;172.732;2023-04-15T06:29:32;20.70;57.50
65826;DHT22;52586;-43.152;172.732;2023-04-15T06:32:02;20.80;57.60
65826;DHT22;52586;-43.152;172.732;2023-04-15T06:34:33;20.70;57.50
65826;DHT22;52586;-43.152;172.732;2023-04-15T06:37:04;20.70;57.50
65826;DHT22;52586;-43.152;172.732;2023-04-15T06:39:36;20.70;57.60
65826;DHT22;52586;-43.152;172.732;2023-04-15T06:42:07;20.70;57.50
65826;DHT22;52586;-43.152;172.732;2023-04-15T06:44:39;20.70;57.50
65826;DHT22;52586;-43.152;172.732;2023-04-15T06:47:10;20.70;57.50
65826;DHT22;52586;-43.152;172.732;2023-04-15T06:49:41;20.60;57.40
65826;DHT22;52586;-43.152;172.732;2023-04-15T06:52:12;20.60;57.40
65826;DHT22;52586;-43.152;172.732;2023-04-15T06:54:43;20.60;57.40
65826;DHT22;52586;-43.152;172.732;2023-04-15T06:57:13;20.60;57.40
65826;DHT22;52586;-43.152;172.732;2023-04-15T06:59:46;20.60;57.40
65826;DHT22;52586;-43.152;172.732;2023-04-15T07:02:17;20.60;57.40
65826;DHT22;52586;-43.152;172.732;2023-04-15T07:04:47;20.60;57.40
65826;DHT22;52586;-43.152;172.732;2023-04-15T07:07:18;20.50;57.40
65826;DHT22;52586;-43.152;172.732;2023-04-15T07:09:48;20.50;57.40
65826;DHT22;52586;-43.152;172.732;2023-04-15T07:12:20;20.50;57.40
65826;DHT22;52586;-43.152;172.732;2023-04-15T07:14:52;20.50;57.40
65826;DHT22;52586;-43.152;172.732;2023-04-15T07:17:23;20.50;57.40
65826;DHT22;52586;-43.152;172.732;2023-04-15T07:19:54;20.50;57.40
65826;DHT22;52586;-43.152;172.732;2023-04-15T07:22:25;20.50;57.40
65826;DHT22;52586;-43.152;172.732;2023-04-15T07:24:56;20.40;57.30
65826;DHT22;52586;-43.152;172.732;2023-04-15T07:27:26;20.50;57.40
65826;DHT22;52586;-43.152;172.732;2023-04-15T07:29:59;20.50;57.40
65826;DHT22;52586;-43.152;172.732;2023-04-15T07:32:30;20.40;57.40
65826;DHT22;52586;-43.152;172.732;2023-04-15T07:35:00;20.40;57.40
65826;DHT22;52586;-43.152;172.732;2023-04-15T07:37:31;20.40;57.40
65826;DHT22;52586;-43.152;172.732;2023-04-15T07:40:02;20.40;57.40
65826;DHT22;52586;-43.152;172.732;2023-04-15T07:42:34;20.30;57.40
65826;DHT22;52586;-43.152;172.732;2023-04-15T07:45:08;20.40;57.40
65826;DHT22;52586;-43.152;172.732;2023-04-15T07:47:39;20.30;58.00
65826;DHT22;52586;-43.152;172.732;2023-04-15T07:50:10;20.30;57.40
65826;DHT22;52586;-43.152;172.732;2023-04-15T07:52:41;20.30;57.40
65826;DHT22;52586;-43.152;172.732;2023-04-15T07:55:12;20.30;57.50
65826;DHT22;52586;-43.152;172.732;2023-04-15T07:57:46;20.30;57.40
65826;DHT22;52586;-43.152;172.732;2023-04-15T08:00:18;20.30;57.40
65826;DHT22;52586;-43.152;172.732;2023-04-15T08:02:49;20.30;57.40
65826;DHT22;52586;-43.152;172.732;2023-04-15T08:05:20;20.30;57.40
65826;DHT22;52586;-43.152;172.732;2023-04-15T08:07:51;20.20;57.40
65826;DHT22;52586;-43.152;172.732;2023-04-15T08:10:22;20.20;57.40
65826;DHT22;52586;-43.152;172.732;2023-04-15T08:12:53;20.20;57.40
65826;DHT22;52586;-43.152;172.732;2023-04-15T08:15:26;20.20;57.40
65826;DHT22;52586;-43.152;172.732;2023-04-15T08:17:56;20.20;57.50
65826;DHT22;52586;-43.152;172.732;2023-04-15T08:20:28;20.20;57.40
65826;DHT22;52586;-43.152;172.732;2023-04-15T08:22:58;20.10;57.40
65826;DHT22;52586;-43.152;172.732;2023-04-15T08:25:29;20.10;57.40
65826;DHT22;52586;-43.152;172.732;2023-04-15T08:28:04;20.10;57.40
65826;DHT22;52586;-43.152;172.732;2023-04-15T08:30:37;20.10;58.00
65826;DHT22;52586;-43.152;172.732;2023-04-15T08:33:08;20.10;57.40
65826;DHT22;52586;-43.152;172.732;2023-04-15T08:35:39;20.10;57.40
65826;DHT22;52586;-43.152;172.732;2023-04-15T08:38:10;20.10;57.40
65826;DHT22;52586;-43.152;172.732;2023-04-15T08:40:42;20.10;57.40
65826;DHT22;52586;-43.152;172.732;2023-04-15T08:43:21;20.10;57.40
65826;DHT22;52586;-43.152;172.732;2023-04-15T08:45:55;20.10;57.40
65826;DHT22;52586;-43.152;172.732;2023-04-15T08:48:29;20.10;57.40
65826;DHT22;52586;-43.152;172.732;2023-04-15T08:51:01;20.00;57.40
65826;DHT22;52586;-43.152;172.732;2023-04-15T08:53:32;20.00;57.40
65826;DHT22;52586;-43.152;172.732;2023-04-15T08:56:05;20.00;57.40
65826;DHT22;52586;-43.152;172.732;2023-04-15T08:58:37;20.00;57.40
65826;DHT22;52586;-43.152;172.732;2023-04-15T09:01:10;20.00;57.40
65826;DHT22;52586;-43.152;172.732;2023-04-15T09:03:41;20.00;57.50
65826;DHT22;52586;-43.152;172.732;2023-04-15T09:06:13;20.10;57.50
65826;DHT22;52586;-43.152;172.732;2023-04-15T09:08:45;20.00;57.50
65826;DHT22;52586;-43.152;172.732;2023-04-15T09:11:16;20.00;57.50
65826;DHT22;52586;-43.152;172.732;2023-04-15T09:13:47;20.00;57.50
65826;DHT22;52586;-43.152;172.732;2023-04-15T09:16:20;20.00;57.50
65826;DHT22;52586;-43.152;172.732;2023-04-15T09:18:51;20.00;57.40
65826;DHT22;52586;-43.152;172.732;2023-04-15T09:21:21;20.00;57.50
65826;DHT22;52586;-43.152;172.732;2023-04-15T09:23:56;20.00;57.50
65826;DHT22;52586;-43.152;172.732;2023-04-15T09:26:34;20.00;57.50
65826;DHT22;52586;-43.152;172.732;2023-04-15T09:29:05;19.90;57.40
65826;DHT22;52586;-43.152;172.732;2023-04-15T09:31:38;19.90;57.50
65826;DHT22;52586;-43.152;172.732;2023-04-15T09:34:09;19.90;57.40
65826;DHT22;52586;-43.152;172.732;2023-04-15T09:36:53;19.90;57.40
65826;DHT22;52586;-43.152;172.732;2023-04-15T09:39:24;19.90;57.50
65826;DHT22;52586;-43.152;172.732;2023-04-15T09:42:07;19.90;57.50
65826;DHT22;52586;-43.152;172.732;2023-04-15T09:44:38;19.90;57.50
65826;DHT22;52586;-43.152;172.732;2023-04-15T09:47:17;19.90;57.50
65826;DHT22;52586;-43.152;172.732;2023-04-15T09:49:59;19.90;57.50
65826;DHT22;52586;-43.152;172.732;2023-04-15T09:52:30;19.90;57.50
65826;DHT22;52586;-43.152;172.732;2023-04-15T09:55:01;19.90;57.50
65826;DHT22;52586;-43.152;172.732;2023-04-15T09:57:36;19.90;57.50
65826;DHT22;52586;-43.152;172.732;2023-04-15T10:00:08;19.80;57.50
65826;DHT22;52586;-43.152;172.732;2023-04-15T10:02:42;19.80;57.50
65826;DHT22;52586;-43.152;172.732;2023-04-15T10:05:14;19.80;57.50
65826;DHT22;52586;-43.152;172.732;2023-04-15T10:07:45;19.80;57.50
65826;DHT22;52586;-43.152;172.732;2023-04-15T10:10:17;19.80;57.50
65826;DHT22;52586;-43.152;172.732;2023-04-15T10:12:48;19.90;57.50
65826;DHT22;52586;-43.152;172.732;2023-04-15T10:15:19;19.90;57.50
65826;DHT22;52586;-43.152;172.732;2023-04-15T10:17:53;19.80;57.50
65826;DHT22;52586;-43.152;172.732;2023-04-15T10:20:25;19.80;57.50
65826;DHT22;52586;-43.152;172.732;2023-04-15T10:22:58;19.80;57.50
65826;DHT22;52586;-43.152;172.732;2023-04-15T10:25:28;19.80;57.50
65826;DHT22;52586;-43.152;172.732;2023-04-15T10:28:00;19.80;57.50
65826;DHT22;52586;-43.152;172.732;2023-04-15T10:30:33;19.80;57.50
65826;DHT22;52586;-43.152;172.732;2023-04-15T10:33:06;19.80;57.50
65826;DHT22;52586;-43.152;172.732;2023-04-15T10:35:40;19.80;57.50
65826;DHT22;52586;-43.152;172.732;2023-04-15T10:38:32;19.80;57.50
65826;DHT22;52586;-43.152;172.732;2023-04-15T10:41:23;19.80;57.50
65826;DHT22;52586;-43.152;172.732;2023-04-15T10:43:59;19.80;57.50
65826;DHT22;52586;-43.152;172.732;2023-04-15T10:46:36;19.70;57.50
65826;DHT22;52586;-43.152;172.732;2023-04-15T10:49:12;19.80;57.50
65826;DHT22;52586;-43.152;172.732;2023-04-15T10:51:45;19.80;57.50
65826;DHT22;52586;-43.152;172.732;2023-04-15T10:54:29;19.80;57.60
65826;DHT22;52586;-43.152;172.732;2023-04-15T10:57:08;19.70;57.50
65826;DHT22;52586;-43.152;172.732;2023-04-15T11:00:00;19.70;58.10
65826;DHT22;52586;-43.152;172.732;2023-04-15T11:02:41;19.70;57.60
65826;DHT22;52586;-43.152;172.732;2023-04-15T11:05:14;19.70;57.50
65826;DHT22;52586;-43.152;172.732;2023-04-15T11:07:55;19.70;57.50
65826;DHT22;52586;-43.152;172.732;2023-04-15T11:10:52;19.70;57.50
65826;DHT22;52586;-43.152;172.732;2023-04-15T11:13:27;19.70;57.50
65826;DHT22;52586;-43.152;172.732;2023-04-15T11:16:00;19.70;57.50
65826;DHT22;52586;-43.152;172.732;2023-04-15T11:18:34;19.70;57.50
65826;DHT22;52586;-43.152;172.732;2023-04-15T11:21:08;19.70;57.50
65826;DHT22;52586;-43.152;172.732;2023-04-15T11:23:39;19.70;57.50
65826;DHT22;52586;-43.152;172.732;2023-04-15T11:26:13;19.70;57.60
65826;DHT22;52586;-43.152;172.732;2023-04-15T11:28:44;19.70;57.60
65826;DHT22;52586;-43.152;172.732;2023-04-15T11:31:16;19.70;57.60
65826;DHT22;52586;-43.152;172.732;2023-04-15T11:33:53;19.70;57.60
65826;DHT22;52586;-43.152;172.732;2023-04-15T11:36:30;19.70;57.60
65826;DHT22;52586;-43.152;172.732;2023-04-15T11:39:00;19.70;57.60
65826;DHT22;52586;-43.152;172.732;2023-04-15T11:41:31;19.60;57.50
65826;DHT22;52586;-43.152;172.732;2023-04-15T11:44:02;19.60;57.50
65826;DHT22;52586;-43.152;172.732;2023-04-15T11:46:32;19.70;57.60
65826;DHT22;52586;-43.152;172.732;2023-04-15T11:49:03;19.60;57.50
65826;DHT22;52586;-43.152;172.732;2023-04-15T11:51:36;19.60;57.50
65826;DHT22;52586;-43.152;172.732;2023-04-15T11:54:06;19.60;57.50
65826;DHT22;52586;-43.152;172.732;2023-04-15T11:56:37;19.60;57.50
65826;DHT22;52586;-43.152;172.732;2023-04-15T11:59:08;19.60;57.50
65826;DHT22;52586;-43.152;172.732;2023-04-15T12:01:39;19.60;57.50
65826;DHT22;52586;-43.152;172.732;2023-04-15T12:04:12;19.60;57.50
65826;DHT22;52586;-43.152;172.732;2023-04-15T12:06:45;19.60;57.60
65826;DHT22;52586;-43.152;172.732;2023-04-15T12:09:16;19.60;57.60
65826;DHT22;52586;-43.152;172.732;2023-04-15T12:11:47;19.60;57.50
65826;DHT22;52586;-43.152;172.732;2023-04-15T12:14:25;19.60;57.50
65826;DHT22;52586;-43.152;172.732;2023-04-15T12:16:58;19.60;57.50
65826;DHT22;52586;-43.152;172.732;2023-04-15T12:19:29;19.60;57.50
65826;DHT22;52586;-43.152;172.732;2023-04-15T12:22:03;19.60;57.50
65826;DHT22;52586;-43.152;172.732;2023-04-15T12:24:35;19.60;57.60
65826;DHT22;52586;-43.152;172.732;2023-04-15T12:27:09;19.60;57.50
65826;DHT22;52586;-43.152;172.732;2023-04-15T12:29:41;19.60;57.50
65826;DHT22;52586;-43.152;172.732;2023-04-15T12:32:12;19.60;57.50
65826;DHT22;52586;-43.152;172.732;2023-04-15T12:34:48;19.50;57.50
65826;DHT22;52586;-43.152;172.732;2023-04-15T12:37:21;19.50;57.50
65826;DHT22;52586;-43.152;172.732;2023-04-15T12:39:52;19.50;57.50
65826;DHT22;52586;-43.152;172.732;2023-04-15T12:42:23;19.50;58.10
65826;DHT22;52586;-43.152;172.732;2023-04-15T12:44:54;19.50;57.50
65826;DHT22;52586;-43.152;172.732;2023-04-15T12:47:24;19.50;57.50
65826;DHT22;52586;-43.152;172.732;2023-04-15T12:49:55;19.50;57.50
65826;DHT22;52586;-43.152;172.732;2023-04-15T12:52:29;19.50;57.50
65826;DHT22;52586;-43.152;172.732;2023-04-15T12:54:59;19.40;58.10
65826;DHT22;52586;-43.152;172.732;2023-04-15T12:57:30;19.50;57.50
65826;DHT22;52586;-43.152;172.732;2023-04-15T13:00:00;19.50;57.50
65826;DHT22;52586;-43.152;172.732;2023-04-15T13:02:33;19.40;57.40
65826;DHT22;52586;-43.152;172.732;2023-04-15T13:05:04;19.40;57.40
65826;DHT22;52586;-43.152;172.732;2023-04-15T13:07:37;19.40;57.50
65826;DHT22;52586;-43.152;172.732;2023-04-15T13:10:08;19.40;57.40
65826;DHT22;52586;-43.152;172.732;2023-04-15T13:12:38;19.40;57.40
65826;DHT22;52586;-43.152;172.732;2023-04-15T13:15:10;19.40;57.40
65826;DHT22;52586;-43.152;172.732;2023-04-15T13:17:40;19.40;57.40
65826;DHT22;52586;-43.152;172.732;2023-04-15T13:20:11;19.40;57.40
65826;DHT22;52586;-43.152;172.732;2023-04-15T13:22:44;19.30;57.40
65826;DHT22;52586;-43.152;172.732;2023-04-15T13:25:15;19.30;57.40
65826;DHT22;52586;-43.152;172.732;2023-04-15T13:27:45;19.30;57.40
65826;DHT22;52586;-43.152;172.732;2023-04-15T13:30:16;19.30;57.40
65826;DHT22;52586;-43.152;172.732;2023-04-15T13:32:47;19.30;57.40
65826;DHT22;52586;-43.152;172.732;2023-04-15T13:35:17;19.30;57.40
65826;DHT22;52586;-43.152;172.732;2023-04-15T13:37:50;19.30;57.50
65826;DHT22;52586;-43.152;172.732;2023-04-15T13:40:21;19.30;57.40
65826;DHT22;52586;-43.152;172.732;2023-04-15T13:42:51;19.30;57.40
65826;DHT22;52586;-43.152;172.732;2023-04-15T13:45:22;19.30;57.40
65826;DHT22;52586;-43.152;172.732;2023-04-15T13:47:54;19.20;58.00
65826;DHT22;52586;-43.152;172.732;2023-04-15T13:50:25;19.20;57.40
65826;DHT22;52586;-43.152;172.732;2023-04-15T13:52:58;19.20;57.40
65826;DHT22;52586;-43.152;172.732;2023-04-15T13:55:28;19.20;57.40
65826;DHT22;52586;-43.152;172.732;2023-04-15T13:57:59;19.20;57.40
65826;DHT22;52586;-43.152;172.732;2023-04-15T14:00:30;19.20;57.40
65826;DHT22;52586;-43.152;172.732;2023-04-15T14:03:00;19.20;57.40
65826;DHT22;52586;-43.152;172.732;2023-04-15T14:05:31;19.10;57.40
65826;DHT22;52586;-43.152;172.732;2023-04-15T14:08:04;19.20;57.40
65826;DHT22;52586;-43.152;172.732;2023-04-15T14:10:35;19.10;57.40
65826;DHT22;52586;-43.152;172.732;2023-04-15T14:13:06;19.10;57.40
65826;DHT22;52586;-43.152;172.732;2023-04-15T14:15:36;19.10;57.40
65826;DHT22;52586;-43.152;172.732;2023-04-15T14:18:07;19.10;57.40
65826;DHT22;52586;-43.152;172.732;2023-04-15T14:20:37;19.10;57.40
65826;DHT22;52586;-43.152;172.732;2023-04-15T14:23:10;19.10;57.40
65826;DHT22;52586;-43.152;172.732;2023-04-15T14:25:41;19.10;57.40
65826;DHT22;52586;-43.152;172.732;2023-04-15T14:28:11;19.10;57.40
65826;DHT22;52586;-43.152;172.732;2023-04-15T14:30:42;19.00;57.30
65826;DHT22;52586;-43.152;172.732;2023-04-15T14:33:12;19.00;57.30
65826;DHT22;52586;-43.152;172.732;2023-04-15T14:35:43;19.00;57.30
65826;DHT22;52586;-43.152;172.732;2023-04-15T14:38:16;19.00;57.40
65826;DHT22;52586;-43.152;172.732;2023-04-15T14:40:46;19.00;58.00
65826;DHT22;52586;-43.152;172.732;2023-04-15T14:43:17;19.00;57.30
65826;DHT22;52586;-43.152;172.732;2023-04-15T14:45:48;18.90;57.30
65826;DHT22;52586;-43.152;172.732;2023-04-15T14:48:18;19.00;57.40
65826;DHT22;52586;-43.152;172.732;2023-04-15T14:50:49;18.90;57.30
65826;DHT22;52586;-43.152;172.732;2023-04-15T14:53:22;18.90;57.30
65826;DHT22;52586;-43.152;172.732;2023-04-15T14:55:52;18.90;57.30
65826;DHT22;52586;-43.152;172.732;2023-04-15T14:58:23;18.90;57.30
65826;DHT22;52586;-43.152;172.732;2023-04-15T15:00:53;18.90;57.30
65826;DHT22;52586;-43.152;172.732;2023-04-15T15:03:24;18.90;57.30
65826;DHT22;52586;-43.152;172.732;2023-04-15T15:05:55;18.90;57.40
65826;DHT22;52586;-43.152;172.732;2023-04-15T15:08:28;18.80;57.30
65826;DHT22;52586;-43.152;172.732;2023-04-15T15:10:59;18.90;57.30
65826;DHT22;52586;-43.152;172.732;2023-04-15T15:13:29;18.80;57.30
65826;DHT22;52586;-43.152;172.732;2023-04-15T15:16:00;18.80;57.30